sensor_id;sensor_type;location;lat;lon;timestamp;temperature;humidity
7684;DHT22;3884;48.616;12.872;2024-03-29T00:02:14;2.50;99.90
7684;DHT22;3884;48.616;12.872;2024-03-29T00:04:40;2.50;74.30
7684;DHT22;3884;48.616;12.872;2024-03-29T00:07:06;2.30;1.00
7684;DHT22;3884;48.616;12.872;2024-03-29T00:09:32;2.10;24.60
7684;DHT22;3884;48.616;12.872;2024-03-29T00:11:57;2.10;99.90
7684;DHT22;3884;48.616;12.872;2024-03-29T00:14:23;2.30;1.00
7684;DHT22;3884;48.616;12.872;2024-03-29T00:16:49;2.20;99.90
7684;DHT22;3884;48.616;12.872;2024-03-29T00:19:17;2.20;1.00
7684;DHT22;3884;48.616;12.872;2024-03-29T00:21:44;2.50;1.00
7684;DHT22;3884;48.616;12.872;2024-03-29T00:24:10;2.30;1.00
7684;DHT22;3884;48.616;12.872;2024-03-29T00:26:36;2.50;1.00
7684;DHT22;3884;48.616;12.872;2024-03-29T00:29:02;2.40;99.90
7684;DHT22;3884;48.616;12.872;2024-03-29T00:31:27;2.50;1.00
7684;DHT22;3884;48.616;12.872;2024-03-29T00:33:54;2.60;1.00
7684;DHT22;3884;48.616;12.872;2024-03-29T00:36:21;2.50;99.90
7684;DHT22;3884;48.616;12.872;2024-03-29T00:38:47;2.70;1.00
7684;DHT22;3884;48.616;12.872;2024-03-29T00:41:13;2.70;99.90
7684;DHT22;3884;48.616;12.872;2024-03-29T00:43:39;2.60;99.90
7684;DHT22;3884;48.616;12.872;2024-03-29T00:46:05;2.60;99.90
7684;DHT22;3884;48.616;12.872;2024-03-29T00:48:30;2.50;91.90
7684;DHT22;3884;48.616;12.872;2024-03-29T00:50:56;2.50;99.90
7684;DHT22;3884;48.616;12.872;2024-03-29T00:53:24;2.60;99.90
7684;DHT22;3884;48.616;12.872;2024-03-29T00:55:50;2.60;99.90
7684;DHT22;3884;48.616;12.872;2024-03-29T00:58:16;2.70;99.90
7684;DHT22;3884;48.616;12.872;2024-03-29T01:00:42;2.80;99.90
7684;DHT22;3884;48.616;12.872;2024-03-29T01:03:08;2.70;99.90
7684;DHT22;3884;48.616;12.872;2024-03-29T01:05:34;2.70;99.90
7684;DHT22;3884;48.616;12.872;2024-03-29T01:08:00;2.70;99.90
7684;DHT22;3884;48.616;12.872;2024-03-29T01:10:27;2.80;99.90
7684;DHT22;3884;48.616;12.872;2024-03-29T01:12:53;2.70;99.90
7684;DHT22;3884;48.616;12.872;2024-03-29T01:15:19;2.70;99.90
7684;DHT22;3884;48.616;12.872;2024-03-29T01:17:45;2.70;99.90
7684;DHT22;3884;48.616;12.872;2024-03-29T01:20:11;2.60;99.90
7684;DHT22;3884;48.616;12.872;2024-03-29T01:22:38;2.60;99.90
7684;DHT22;3884;48.616;12.872;2024-03-29T01:25:04;2.30;43.20
7684;DHT22;3884;48.616;12.872;2024-03-29T01:27:35;2.30;99.90
7684;DHT22;3884;48.616;12.872;2024-03-29T01:30:01;2.10;99.90
7684;DHT22;3884;48.616;12.872;2024-03-29T01:32:27;2.00;1.00
7684;DHT22;3884;48.616;12.872;2024-03-29T01:34:53;1.80;1.00
7684;DHT22;3884;48.616;12.872;2024-03-29T01:37:19;1.90;16.20
7684;DHT22;3884;48.616;12.872;2024-03-29T01:39:44;1.90;1.00
7684;DHT22;3884;48.616;12.872;2024-03-29T01:42:10;1.80;1.00
7684;DHT22;3884;48.616;12.872;2024-03-29T01:44:38;1.70;1.00
7684;DHT22;3884;48.616;12.872;2024-03-29T01:47:04;1.60;1.00
7684;DHT22;3884;48.616;12.872;2024-03-29T01:49:31;1.80;90.20
7684;DHT22;3884;48.616;12.872;2024-03-29T01:51:57;1.60;1.00
7684;DHT22;3884;48.616;12.872;2024-03-29T01:54:23;1.50;1.00
7684;DHT22;3884;48.616;12.872;2024-03-29T01:56:49;1.50;99.90
7684;DHT22;3884;48.616;12.872;2024-03-29T01:59:17;1.80;92.50
7684;DHT22;3884;48.616;12.872;2024-03-29T02:01:46;2.00;99.90
7684;DHT22;3884;48.616;12.872;2024-03-29T02:04:13;2.20;10.50
7684;DHT22;3884;48.616;12.872;2024-03-29T02:06:39;2.20;1.00
7684;DHT22;3884;48.616;12.872;2024-03-29T02:09:08;2.10;99.90
7684;DHT22;3884;48.616;12.872;2024-03-29T02:11:34;2.20;99.90
7684;DHT22;3884;48.616;12.872;2024-03-29T02:14:00;2.00;1.00
7684;DHT22;3884;48.616;12.872;2024-03-29T02:16:27;2.00;9.80
7684;DHT22;3884;48.616;12.872;2024-03-29T02:18:54;2.00;1.00
7684;DHT22;3884;48.616;12.872;2024-03-29T02:21:20;2.00;86.40
7684;DHT22;3884;48.616;12.872;2024-03-29T02:23:47;2.20;99.90
7684;DHT22;3884;48.616;12.872;2024-03-29T02:26:17;2.30;99.90
7684;DHT22;3884;48.616;12.872;2024-03-29T02:28:43;2.10;69.70
7684;DHT22;3884;48.616;12.872;2024-03-29T02:31:09;2.00;99.90
7684;DHT22;3884;48.616;12.872;2024-03-29T02:33:35;2.10;1.00
7684;DHT22;3884;48.616;12.872;2024-03-29T02:36:01;2.00;1.00
7684;DHT22;3884;48.616;12.872;2024-03-29T02:38:27;2.00;1.00
7684;DHT22;3884;48.616;12.872;2024-03-29T02:40:53;2.00;99.90
7684;DHT22;3884;48.616;12.872;2024-03-29T02:43:20;2.10;99.90
7684;DHT22;3884;48.616;12.872;2024-03-29T02:45:46;2.10;99.90
7684;DHT22;3884;48.616;12.872;2024-03-29T02:48:12;2.10;1.00
7684;DHT22;3884;48.616;12.872;2024-03-29T02:50:38;2.10;1.00
7684;DHT22;3884;48.616;12.872;2024-03-29T02:53:04;2.00;1.00
7684;DHT22;3884;48.616;12.872;2024-03-29T02:55:30;2.00;99.90
7684;DHT22;3884;48.616;12.872;2024-03-29T02:57:56;2.00;99.90
7684;DHT22;3884;48.616;12.872;2024-03-29T03:00:23;2.00;99.90
7684;DHT22;3884;48.616;12.872;2024-03-29T03:02:49;2.00;99.90
7684;DHT22;3884;48.616;12.872;2024-03-29T03:05:15;2.10;99.90
7684;DHT22;3884;48.616;12.872;2024-03-29T03:07:41;2.10;99.90
7684;DHT22;3884;48.616;12.872;2024-03-29T03:10:26;2.10;99.50
7684;DHT22;3884;48.616;12.872;2024-03-29T03:13:10;2.20;43.20
7684;DHT22;3884;48.616;12.872;2024-03-29T03:15:38;2.10;1.00
7684;DHT22;3884;48.616;12.872;2024-03-29T03:18:04;2.10;1.00
7684;DHT22;3884;48.616;12.872;2024-03-29T03:20:30;2.30;99.90
7684;DHT22;3884;48.616;12.872;2024-03-29T03:22:57;2.30;99.90
7684;DHT22;3884;48.616;12.872;2024-03-29T03:25:26;2.30;99.90
7684;DHT22;3884;48.616;12.872;2024-03-29T03:27:52;2.30;99.90
7684;DHT22;3884;48.616;12.872;2024-03-29T03:30:18;2.30;1.00
7684;DHT22;3884;48.616;12.872;2024-03-29T03:32:46;2.40;99.90
7684;DHT22;3884;48.616;12.872;2024-03-29T03:35:12;2.40;99.90
7684;DHT22;3884;48.616;12.872;2024-03-29T03:37:38;2.40;99.90
7684;DHT22;3884;48.616;12.872;2024-03-29T03:40:05;2.40;99.90
7684;DHT22;3884;48.616;12.872;2024-03-29T03:42:32;2.30;1.00
7684;DHT22;3884;48.616;12.872;2024-03-29T03:44:58;2.30;1.00
7684;DHT22;3884;48.616;12.872;2024-03-29T03:47:24;2.30;1.00
7684;DHT22;3884;48.616;12.872;2024-03-29T03:49:51;2.30;1.00
7684;DHT22;3884;48.616;12.872;2024-03-29T03:52:17;2.30;1.00
7684;DHT22;3884;48.616;12.872;2024-03-29T03:54:43;2.30;1.00
7684;DHT22;3884;48.616;12.872;2024-03-29T03:57:09;2.30;1.00
7684;DHT22;3884;48.616;12.872;2024-03-29T03:59:35;2.30;1.00
7684;DHT22;3884;48.616;12.872;2024-03-29T04:02:01;2.30;99.90
7684;DHT22;3884;48.616;12.872;2024-03-29T04:04:27;2.30;1.00
7684;DHT22;3884;48.616;12.872;2024-03-29T04:06:54;2.30;1.00
7684;DHT22;3884;48.616;12.872;2024-03-29T04:09:20;2.30;1.00
7684;DHT22;3884;48.616;12.872;2024-03-29T04:11:46;2.30;95.20
7684;DHT22;3884;48.616;12.872;2024-03-29T04:14:12;2.30;99.90
7684;DHT22;3884;48.616;12.872;2024-03-29T04:16:38;2.30;99.90
7684;DHT22;3884;48.616;12.872;2024-03-29T04:19:04;2.30;99.90
7684;DHT22;3884;48.616;12.872;2024-03-29T04:21:30;2.30;1.00
7684;DHT22;3884;48.616;12.872;2024-03-29T04:23:57;2.30;99.90
7684;DHT22;3884;48.616;12.872;2024-03-29T04:26:23;2.30;99.90
7684;DHT22;3884;48.616;12.872;2024-03-29T04:28:49;2.30;1.00
7684;DHT22;3884;48.616;12.872;2024-03-29T04:31:15;2.30;99.90
7684;DHT22;3884;48.616;12.872;2024-03-29T04:33:41;2.30;1.00
7684;DHT22;3884;48.616;12.872;2024-03-29T04:36:07;2.30;1.00
7684;DHT22;3884;48.616;12.872;2024-03-29T04:38:33;2.30;99.90
7684;DHT22;3884;48.616;12.872;2024-03-29T04:41:01;2.30;99.90
7684;DHT22;3884;48.616;12.872;2024-03-29T04:43:28;2.30;99.90
7684;DHT22;3884;48.616;12.872;2024-03-29T04:46:02;2.30;1.00
7684;DHT22;3884;48.616;12.872;2024-03-29T04:48:30;2.30;99.90
7684;DHT22;3884;48.616;12.872;2024-03-29T04:50:56;2.20;99.90
7684;DHT22;3884;48.616;12.872;2024-03-29T04:53:22;2.10;1.00
7684;DHT22;3884;48.616;12.872;2024-03-29T04:55:53;2.20;1.00
7684;DHT22;3884;48.616;12.872;2024-03-29T04:58:21;2.10;1.00
7684;DHT22;3884;48.616;12.872;2024-03-29T05:00:47;2.20;1.00
7684;DHT22;3884;48.616;12.872;2024-03-29T05:03:14;2.10;1.00
7684;DHT22;3884;48.616;12.872;2024-03-29T05:05:40;2.00;1.00
7684;DHT22;3884;48.616;12.872;2024-03-29T05:08:06;2.00;1.00
7684;DHT22;3884;48.616;12.872;2024-03-29T05:10:32;2.00;1.00
7684;DHT22;3884;48.616;12.872;2024-03-29T05:12:58;2.00;1.00
7684;DHT22;3884;48.616;12.872;2024-03-29T05:15:25;2.00;32.40
7684;DHT22;3884;48.616;12.872;2024-03-29T05:17:51;2.00;99.90
7684;DHT22;3884;48.616;12.872;2024-03-29T05:20:19;2.10;99.90
7684;DHT22;3884;48.616;12.872;2024-03-29T05:22:45;2.20;99.90
7684;DHT22;3884;48.616;12.872;2024-03-29T05:25:11;2.20;99.90
7684;DHT22;3884;48.616;12.872;2024-03-29T05:27:37;2.20;1.00
7684;DHT22;3884;48.616;12.872;2024-03-29T05:30:03;2.20;1.00
7684;DHT22;3884;48.616;12.872;2024-03-29T05:32:31;2.20;62.90
7684;DHT22;3884;48.616;12.872;2024-03-29T05:34:57;2.20;99.90
7684;DHT22;3884;48.616;12.872;2024-03-29T05:37:23;2.30;99.90
7684;DHT22;3884;48.616;12.872;2024-03-29T05:39:53;2.30;99.90
7684;DHT22;3884;48.616;12.872;2024-03-29T05:42:25;2.50;99.90
7684;DHT22;3884;48.616;12.872;2024-03-29T05:44:52;2.60;1.00
7684;DHT22;3884;48.616;12.872;2024-03-29T05:47:18;2.70;99.90
7684;DHT22;3884;48.616;12.872;2024-03-29T05:49:45;2.80;99.90
7684;DHT22;3884;48.616;12.872;2024-03-29T05:52:11;3.00;99.90
7684;DHT22;3884;48.616;12.872;2024-03-29T05:54:39;3.10;1.00
7684;DHT22;3884;48.616;12.872;2024-03-29T05:57:05;3.30;1.00
7684;DHT22;3884;48.616;12.872;2024-03-29T05:59:34;3.40;99.90
7684;DHT22;3884;48.616;12.872;2024-03-29T06:02:00;3.60;1.00
7684;DHT22;3884;48.616;12.872;2024-03-29T06:04:26;3.70;1.00
7684;DHT22;3884;48.616;12.872;2024-03-29T06:07:00;3.90;99.90
7684;DHT22;3884;48.616;12.872;2024-03-29T06:09:26;4.00;84.20
7684;DHT22;3884;48.616;12.872;2024-03-29T06:11:53;4.10;1.00
7684;DHT22;3884;48.616;12.872;2024-03-29T06:14:20;4.30;1.00
7684;DHT22;3884;48.616;12.872;2024-03-29T06:17:04;4.40;1.00
7684;DHT22;3884;48.616;12.872;2024-03-29T06:19:48;4.60;1.00
7684;DHT22;3884;48.616;12.872;2024-03-29T06:22:16;4.70;1.00
7684;DHT22;3884;48.616;12.872;2024-03-29T06:24:43;4.80;1.00
7684;DHT22;3884;48.616;12.872;2024-03-29T06:27:10;4.80;99.90
7684;DHT22;3884;48.616;12.872;2024-03-29T06:29:36;4.90;99.90
7684;DHT22;3884;48.616;12.872;2024-03-29T06:32:02;5.00;99.90
7684;DHT22;3884;48.616;12.872;2024-03-29T06:34:30;5.20;99.90
7684;DHT22;3884;48.616;12.872;2024-03-29T06:36:56;5.20;99.90
7684;DHT22;3884;48.616;12.872;2024-03-29T06:39:24;5.30;99.90
7684;DHT22;3884;48.616;12.872;2024-03-29T06:41:51;5.40;96.20
7684;DHT22;3884;48.616;12.872;2024-03-29T06:44:17;5.60;55.10
7684;DHT22;3884;48.616;12.872;2024-03-29T06:46:43;5.70;24.30
7684;DHT22;3884;48.616;12.872;2024-03-29T06:49:09;5.80;1.00
7684;DHT22;3884;48.616;12.872;2024-03-29T06:51:35;5.90;1.00
7684;DHT22;3884;48.616;12.872;2024-03-29T06:54:01;6.00;1.00
7684;DHT22;3884;48.616;12.872;2024-03-29T06:56:28;6.20;1.00
7684;DHT22;3884;48.616;12.872;2024-03-29T06:58:55;6.20;1.00
7684;DHT22;3884;48.616;12.872;2024-03-29T07:01:21;6.30;1.00
7684;DHT22;3884;48.616;12.872;2024-03-29T07:03:47;6.40;1.00
7684;DHT22;3884;48.616;12.872;2024-03-29T07:06:13;6.30;1.00
7684;DHT22;3884;48.616;12.872;2024-03-29T07:08:39;6.30;1.00
7684;DHT22;3884;48.616;12.872;2024-03-29T07:11:05;6.50;1.00
7684;DHT22;3884;48.616;12.872;2024-03-29T07:13:33;6.50;1.00
7684;DHT22;3884;48.616;12.872;2024-03-29T07:15:59;6.70;1.00
7684;DHT22;3884;48.616;12.872;2024-03-29T07:18:25;6.70;1.00
7684;DHT22;3884;48.616;12.872;2024-03-29T07:20:52;6.90;1.00
7684;DHT22;3884;48.616;12.872;2024-03-29T07:23:18;7.00;1.00
7684;DHT22;3884;48.616;12.872;2024-03-29T07:25:45;7.30;1.00
7684;DHT22;3884;48.616;12.872;2024-03-29T07:28:11;7.40;1.00
7684;DHT22;3884;48.616;12.872;2024-03-29T07:30:42;7.50;1.00
7684;DHT22;3884;48.616;12.872;2024-03-29T07:33:08;7.70;1.00
7684;DHT22;3884;48.616;12.872;2024-03-29T07:35:35;7.80;1.00
7684;DHT22;3884;48.616;12.872;2024-03-29T07:38:01;8.00;1.00
7684;DHT22;3884;48.616;12.872;2024-03-29T07:40:27;8.30;1.00
7684;DHT22;3884;48.616;12.872;2024-03-29T07:42:53;8.50;1.00
7684;DHT22;3884;48.616;12.872;2024-03-29T07:45:19;8.60;1.00
7684;DHT22;3884;48.616;12.872;2024-03-29T07:47:46;8.80;1.00
7684;DHT22;3884;48.616;12.872;2024-03-29T07:50:15;8.80;1.00
7684;DHT22;3884;48.616;12.872;2024-03-29T07:52:42;9.00;1.00
7684;DHT22;3884;48.616;12.872;2024-03-29T07:55:10;9.10;1.00
7684;DHT22;3884;48.616;12.872;2024-03-29T07:57:36;9.20;1.00
7684;DHT22;3884;48.616;12.872;2024-03-29T08:00:02;9.50;1.00
7684;DHT22;3884;48.616;12.872;2024-03-29T08:02:32;9.60;99.90
7684;DHT22;3884;48.616;12.872;2024-03-29T08:04:59;9.50;99.90
7684;DHT22;3884;48.616;12.872;2024-03-29T08:07:25;9.40;99.90
7684;DHT22;3884;48.616;12.872;2024-03-29T08:09:51;9.50;99.90
7684;DHT22;3884;48.616;12.872;2024-03-29T08:12:17;9.70;99.90
7684;DHT22;3884;48.616;12.872;2024-03-29T08:14:43;9.90;99.90
7684;DHT22;3884;48.616;12.872;2024-03-29T08:17:09;9.60;99.90
7684;DHT22;3884;48.616;12.872;2024-03-29T08:19:35;9.60;99.90
7684;DHT22;3884;48.616;12.872;2024-03-29T08:22:03;9.90;99.90
7684;DHT22;3884;48.616;12.872;2024-03-29T08:24:29;10.10;99.90
7684;DHT22;3884;48.616;12.872;2024-03-29T08:26:55;10.30;99.90
7684;DHT22;3884;48.616;12.872;2024-03-29T08:29:20;10.60;99.90
7684;DHT22;3884;48.616;12.872;2024-03-29T08:31:46;10.60;99.90
7684;DHT22;3884;48.616;12.872;2024-03-29T08:34:12;10.80;99.90
7684;DHT22;3884;48.616;12.872;2024-03-29T08:36:39;10.90;99.90
7684;DHT22;3884;48.616;12.872;2024-03-29T08:39:06;11.10;99.90
7684;DHT22;3884;48.616;12.872;2024-03-29T08:41:35;11.40;99.90
7684;DHT22;3884;48.616;12.872;2024-03-29T08:44:01;11.40;99.90
7684;DHT22;3884;48.616;12.872;2024-03-29T08:46:27;11.50;99.90
7684;DHT22;3884;48.616;12.872;2024-03-29T08:48:53;11.50;99.90
7684;DHT22;3884;48.616;12.872;2024-03-29T08:51:20;11.60;99.90
7684;DHT22;3884;48.616;12.872;2024-03-29T08:53:46;11.70;99.90
7684;DHT22;3884;48.616;12.872;2024-03-29T08:56:14;11.60;99.90
7684;DHT22;3884;48.616;12.872;2024-03-29T08:58:41;11.80;99.90
7684;DHT22;3884;48.616;12.872;2024-03-29T09:01:07;11.60;99.90
7684;DHT22;3884;48.616;12.872;2024-03-29T09:03:33;12.00;99.90
7684;DHT22;3884;48.616;12.872;2024-03-29T09:05:59;12.20;99.90
7684;DHT22;3884;48.616;12.872;2024-03-29T09:08:25;12.50;99.90
7684;DHT22;3884;48.616;12.872;2024-03-29T09:10:51;12.40;99.90
7684;DHT22;3884;48.616;12.872;2024-03-29T09:13:18;12.50;99.90
7684;DHT22;3884;48.616;12.872;2024-03-29T09:15:44;12.20;99.90
7684;DHT22;3884;48.616;12.872;2024-03-29T09:18:10;12.20;99.90
7684;DHT22;3884;48.616;12.872;2024-03-29T09:20:46;12.30;99.90
7684;DHT22;3884;48.616;12.872;2024-03-29T09:23:15;12.70;99.90
7684;DHT22;3884;48.616;12.872;2024-03-29T09:25:42;12.80;99.90
7684;DHT22;3884;48.616;12.872;2024-03-29T09:28:08;13.00;99.90
7684;DHT22;3884;48.616;12.872;2024-03-29T09:30:37;13.30;99.90
7684;DHT22;3884;48.616;12.872;2024-03-29T09:33:03;13.30;99.90
7684;DHT22;3884;48.616;12.872;2024-03-29T09:35:32;13.30;99.90
7684;DHT22;3884;48.616;12.872;2024-03-29T09:37:58;13.70;99.90
7684;DHT22;3884;48.616;12.872;2024-03-29T09:40:26;13.70;99.90
7684;DHT22;3884;48.616;12.872;2024-03-29T09:42:53;13.70;99.90
7684;DHT22;3884;48.616;12.872;2024-03-29T09:45:23;13.70;99.90
7684;DHT22;3884;48.616;12.872;2024-03-29T09:47:51;13.50;99.90
7684;DHT22;3884;48.616;12.872;2024-03-29T09:50:18;13.70;99.90
7684;DHT22;3884;48.616;12.872;2024-03-29T09:52:44;13.80;99.90
7684;DHT22;3884;48.616;12.872;2024-03-29T09:55:11;13.80;99.90
7684;DHT22;3884;48.616;12.872;2024-03-29T09:57:37;13.50;99.90
7684;DHT22;3884;48.616;12.872;2024-03-29T10:00:04;13.60;99.90
7684;DHT22;3884;48.616;12.872;2024-03-29T10:02:31;13.60;99.90
7684;DHT22;3884;48.616;12.872;2024-03-29T10:05:01;13.60;99.90
7684;DHT22;3884;48.616;12.872;2024-03-29T10:07:30;13.70;99.90
7684;DHT22;3884;48.616;12.872;2024-03-29T10:09:58;13.70;99.90
7684;DHT22;3884;48.616;12.872;2024-03-29T10:12:27;13.70;99.90
7684;DHT22;3884;48.616;12.872;2024-03-29T10:14:53;13.90;99.90
7684;DHT22;3884;48.616;12.872;2024-03-29T10:17:24;13.70;99.90
7684;DHT22;3884;48.616;12.872;2024-03-29T10:19:50;13.40;99.90
7684;DHT22;3884;48.616;12.872;2024-03-29T10:22:17;13.40;99.90
7684;DHT22;3884;48.616;12.872;2024-03-29T10:24:43;13.50;99.90
7684;DHT22;3884;48.616;12.872;2024-03-29T10:27:09;13.50;99.90
7684;DHT22;3884;48.616;12.872;2024-03-29T10:29:35;13.60;99.90
7684;DHT22;3884;48.616;12.872;2024-03-29T10:32:01;13.50;99.90
7684;DHT22;3884;48.616;12.872;2024-03-29T10:34:29;13.50;99.90
7684;DHT22;3884;48.616;12.872;2024-03-29T10:37:01;13.50;99.90
7684;DHT22;3884;48.616;12.872;2024-03-29T10:39:29;13.70;99.90
7684;DHT22;3884;48.616;12.872;2024-03-29T10:41:56;13.80;99.90
7684;DHT22;3884;48.616;12.872;2024-03-29T10:44:23;13.90;99.90
7684;DHT22;3884;48.616;12.872;2024-03-29T10:46:50;13.90;99.90
7684;DHT22;3884;48.616;12.872;2024-03-29T10:49:17;13.90;99.90
7684;DHT22;3884;48.616;12.872;2024-03-29T10:51:44;14.10;99.90
7684;DHT22;3884;48.616;12.872;2024-03-29T10:54:11;14.20;99.90
7684;DHT22;3884;48.616;12.872;2024-03-29T10:56:40;14.40;99.90
7684;DHT22;3884;48.616;12.872;2024-03-29T10:59:12;14.50;99.90
7684;DHT22;3884;48.616;12.872;2024-03-29T11:01:44;14.30;99.90
7684;DHT22;3884;48.616;12.872;2024-03-29T11:04:19;14.60;99.90
7684;DHT22;3884;48.616;12.872;2024-03-29T11:06:47;14.80;99.90
7684;DHT22;3884;48.616;12.872;2024-03-29T11:09:17;14.70;99.90
7684;DHT22;3884;48.616;12.872;2024-03-29T11:11:50;14.80;99.90
7684;DHT22;3884;48.616;12.872;2024-03-29T11:14:20;14.90;99.90
7684;DHT22;3884;48.616;12.872;2024-03-29T11:16:49;15.00;99.90
7684;DHT22;3884;48.616;12.872;2024-03-29T11:19:18;14.90;99.90
7684;DHT22;3884;48.616;12.872;2024-03-29T11:21:44;15.00;99.90
7684;DHT22;3884;48.616;12.872;2024-03-29T11:24:16;15.00;99.90
7684;DHT22;3884;48.616;12.872;2024-03-29T11:26:46;15.00;99.90
7684;DHT22;3884;48.616;12.872;2024-03-29T11:29:18;14.90;99.90
7684;DHT22;3884;48.616;12.872;2024-03-29T11:31:45;14.90;99.90
7684;DHT22;3884;48.616;12.872;2024-03-29T11:34:12;14.90;99.90
7684;DHT22;3884;48.616;12.872;2024-03-29T11:36:39;14.90;99.90
7684;DHT22;3884;48.616;12.872;2024-03-29T11:39:05;14.90;99.90
7684;DHT22;3884;48.616;12.872;2024-03-29T11:41:31;14.90;99.90
7684;DHT22;3884;48.616;12.872;2024-03-29T11:43:59;15.10;99.90
7684;DHT22;3884;48.616;12.872;2024-03-29T11:46:25;15.10;99.90
7684;DHT22;3884;48.616;12.872;2024-03-29T11:48:51;15.20;99.90
7684;DHT22;3884;48.616;12.872;2024-03-29T11:51:19;15.10;99.90
7684;DHT22;3884;48.616;12.872;2024-03-29T11:53:47;15.50;99.90
7684;DHT22;3884;48.616;12.872;2024-03-29T11:56:13;15.50;99.90
7684;DHT22;3884;48.616;12.872;2024-03-29T11:58:40;15.50;99.90
7684;DHT22;3884;48.616;12.872;2024-03-29T12:01:08;15.80;99.90
7684;DHT22;3884;48.616;12.872;2024-03-29T12:03:40;15.80;99.90
7684;DHT22;3884;48.616;12.872;2024-03-29T12:06:07;15.90;99.90
7684;DHT22;3884;48.616;12.872;2024-03-29T12:08:35;15.80;99.90
7684;DHT22;3884;48.616;12.872;2024-03-29T12:11:02;15.60;99.90
7684;DHT22;3884;48.616;12.872;2024-03-29T12:13:29;15.40;99.90
7684;DHT22;3884;48.616;12.872;2024-03-29T12:15:55;15.50;99.90
7684;DHT22;3884;48.616;12.872;2024-03-29T12:18:24;15.50;99.90
7684;DHT22;3884;48.616;12.872;2024-03-29T12:20:52;15.50;99.90
7684;DHT22;3884;48.616;12.872;2024-03-29T12:23:20;15.60;99.90
7684;DHT22;3884;48.616;12.872;2024-03-29T12:25:47;15.70;99.90
7684;DHT22;3884;48.616;12.872;2024-03-29T12:28:13;15.80;99.90
7684;DHT22;3884;48.616;12.872;2024-03-29T12:30:43;15.70;99.90
7684;DHT22;3884;48.616;12.872;2024-03-29T12:33:12;15.60;99.90
7684;DHT22;3884;48.616;12.872;2024-03-29T12:35:43;15.70;99.90
7684;DHT22;3884;48.616;12.872;2024-03-29T12:38:12;15.50;99.90
7684;DHT22;3884;48.616;12.872;2024-03-29T12:40:41;15.60;99.90
7684;DHT22;3884;48.616;12.872;2024-03-29T12:43:10;15.70;99.90
7684;DHT22;3884;48.616;12.872;2024-03-29T12:45:38;15.80;99.90
7684;DHT22;3884;48.616;12.872;2024-03-29T12:48:09;15.80;99.90
7684;DHT22;3884;48.616;12.872;2024-03-29T12:50:36;15.90;99.90
7684;DHT22;3884;48.616;12.872;2024-03-29T12:53:07;16.10;99.90
7684;DHT22;3884;48.616;12.872;2024-03-29T12:55:33;16.10;99.90
7684;DHT22;3884;48.616;12.872;2024-03-29T12:58:01;16.10;99.90
7684;DHT22;3884;48.616;12.872;2024-03-29T13:00:30;16.20;99.90
7684;DHT22;3884;48.616;12.872;2024-03-29T13:02:56;16.10;99.90
7684;DHT22;3884;48.616;12.872;2024-03-29T13:05:22;16.10;99.90
7684;DHT22;3884;48.616;12.872;2024-03-29T13:07:49;16.20;99.90
7684;DHT22;3884;48.616;12.872;2024-03-29T13:10:16;16.30;99.90
7684;DHT22;3884;48.616;12.872;2024-03-29T13:12:46;16.40;99.90
7684;DHT22;3884;48.616;12.872;2024-03-29T13:15:17;16.40;99.90
7684;DHT22;3884;48.616;12.872;2024-03-29T13:17:43;16.50;99.90
7684;DHT22;3884;48.616;12.872;2024-03-29T13:20:11;16.70;99.90
7684;DHT22;3884;48.616;12.872;2024-03-29T13:22:37;16.90;99.90
7684;DHT22;3884;48.616;12.872;2024-03-29T13:25:04;16.90;99.90
7684;DHT22;3884;48.616;12.872;2024-03-29T13:27:32;17.10;99.90
7684;DHT22;3884;48.616;12.872;2024-03-29T13:29:58;17.20;99.90
7684;DHT22;3884;48.616;12.872;2024-03-29T13:32:24;17.30;99.90
7684;DHT22;3884;48.616;12.872;2024-03-29T13:34:50;17.50;99.90
7684;DHT22;3884;48.616;12.872;2024-03-29T13:37:16;17.70;99.90
7684;DHT22;3884;48.616;12.872;2024-03-29T13:39:42;17.80;99.90
7684;DHT22;3884;48.616;12.872;2024-03-29T13:42:08;17.90;99.90
7684;DHT22;3884;48.616;12.872;2024-03-29T13:44:35;17.90;99.90
7684;DHT22;3884;48.616;12.872;2024-03-29T13:47:01;17.90;99.90
7684;DHT22;3884;48.616;12.872;2024-03-29T13:49:30;17.90;99.90
7684;DHT22;3884;48.616;12.872;2024-03-29T13:51:56;17.90;99.90
7684;DHT22;3884;48.616;12.872;2024-03-29T13:54:23;17.90;99.90
7684;DHT22;3884;48.616;12.872;2024-03-29T13:56:49;18.00;99.90
7684;DHT22;3884;48.616;12.872;2024-03-29T13:59:15;17.90;99.90
7684;DHT22;3884;48.616;12.872;2024-03-29T14:01:43;18.00;99.90
7684;DHT22;3884;48.616;12.872;2024-03-29T14:04:09;18.00;99.90
7684;DHT22;3884;48.616;12.872;2024-03-29T14:06:35;18.10;99.90
7684;DHT22;3884;48.616;12.872;2024-03-29T14:09:01;18.10;99.90
7684;DHT22;3884;48.616;12.872;2024-03-29T14:11:28;18.20;99.90
7684;DHT22;3884;48.616;12.872;2024-03-29T14:13:54;18.10;99.90
7684;DHT22;3884;48.616;12.872;2024-03-29T14:16:21;18.30;99.90
7684;DHT22;3884;48.616;12.872;2024-03-29T14:18:49;18.50;99.90
7684;DHT22;3884;48.616;12.872;2024-03-29T14:21:15;18.20;99.90
7684;DHT22;3884;48.616;12.872;2024-03-29T14:23:41;17.90;99.90
7684;DHT22;3884;48.616;12.872;2024-03-29T14:26:06;18.20;99.90
7684;DHT22;3884;48.616;12.872;2024-03-29T14:28:32;18.10;99.90
7684;DHT22;3884;48.616;12.872;2024-03-29T14:30:58;18.00;99.90
7684;DHT22;3884;48.616;12.872;2024-03-29T14:33:24;18.10;99.90
7684;DHT22;3884;48.616;12.872;2024-03-29T14:35:52;17.90;99.90
7684;DHT22;3884;48.616;12.872;2024-03-29T14:38:19;17.90;99.90
7684;DHT22;3884;48.616;12.872;2024-03-29T14:40:47;17.90;99.90
7684;DHT22;3884;48.616;12.872;2024-03-29T14:43:13;17.90;99.90
7684;DHT22;3884;48.616;12.872;2024-03-29T14:45:40;18.00;99.90
7684;DHT22;3884;48.616;12.872;2024-03-29T14:48:06;17.80;99.90
7684;DHT22;3884;48.616;12.872;2024-03-29T14:50:32;17.80;99.90
7684;DHT22;3884;48.616;12.872;2024-03-29T14:52:59;17.80;99.90
7684;DHT22;3884;48.616;12.872;2024-03-29T14:55:25;17.70;99.90
7684;DHT22;3884;48.616;12.872;2024-03-29T14:57:52;17.80;99.90
7684;DHT22;3884;48.616;12.872;2024-03-29T15:00:19;17.80;99.90
7684;DHT22;3884;48.616;12.872;2024-03-29T15:02:45;17.70;99.90
7684;DHT22;3884;48.616;12.872;2024-03-29T15:05:12;17.80;99.90
7684;DHT22;3884;48.616;12.872;2024-03-29T15:07:38;17.80;99.90
7684;DHT22;3884;48.616;12.872;2024-03-29T15:10:06;18.00;99.90
7684;DHT22;3884;48.616;12.872;2024-03-29T15:12:36;18.20;99.90
7684;DHT22;3884;48.616;12.872;2024-03-29T15:15:02;18.40;99.90
7684;DHT22;3884;48.616;12.872;2024-03-29T15:17:28;18.50;99.90
7684;DHT22;3884;48.616;12.872;2024-03-29T15:19:54;18.50;99.90
7684;DHT22;3884;48.616;12.872;2024-03-29T15:22:19;18.60;99.90
7684;DHT22;3884;48.616;12.872;2024-03-29T15:24:45;18.60;99.90
7684;DHT22;3884;48.616;12.872;2024-03-29T15:27:13;18.40;99.90
7684;DHT22;3884;48.616;12.872;2024-03-29T15:29:54;18.30;99.90
7684;DHT22;3884;48.616;12.872;2024-03-29T15:32:21;18.30;99.90
7684;DHT22;3884;48.616;12.872;2024-03-29T15:34:47;18.20;99.90
7684;DHT22;3884;48.616;12.872;2024-03-29T15:37:14;18.00;99.90
7684;DHT22;3884;48.616;12.872;2024-03-29T15:39:40;18.00;99.90
7684;DHT22;3884;48.616;12.872;2024-03-29T15:42:06;17.90;99.90
7684;DHT22;3884;48.616;12.872;2024-03-29T15:44:36;17.80;99.90
7684;DHT22;3884;48.616;12.872;2024-03-29T15:47:02;17.80;99.90
7684;DHT22;3884;48.616;12.872;2024-03-29T15:49:28;17.70;99.90
7684;DHT22;3884;48.616;12.872;2024-03-29T15:51:54;17.70;99.90
7684;DHT22;3884;48.616;12.872;2024-03-29T15:54:20;17.60;99.90
7684;DHT22;3884;48.616;12.872;2024-03-29T15:56:48;17.60;99.90